Romy Trader — ZDJX5 — position and weather

sailwx.info

Track history (hours):
 
Tides and Currents Weather Stations Pressure Air Temp Water Temp Dewpoint Dewpoint Depression Visibility Wind Speed Wind Dir Waves Ship Positions

Romy Trader

Last reported at 2018-Apr-14 15:19 UTC. Time now 2018-Apr-22 01:28 UTC.
Position N 35°50' W 005°08'.

Length 132 m; draft 5.4 m.

Type: Ship. MMSI: 236576000.

Date/timePositionNaut miles runAvg speedWind from/ knotsBaromVisibWave heightAir tempDewpointWater temp
2018-Apr-14 15:19N 35°50' W 005°08'513.4
2018-Apr-14 14:56N 35°55' W 005°11'615.0
2018-Apr-14 14:30N 35°57' W 005°18'816.1
2018-Apr-14 14:00N 35°56' W 005°28'  
2018-Apr-11 22:20N 38°13' W 009°27'412.6
2018-Apr-11 22:00N 38°17' W 009°27'612.7
2018-Apr-11 21:30N 38°24' W 009°26'713.1
2018-Apr-11 21:00N 38°30' W 009°25'713.1
2018-Apr-11 20:30N 38°36' W 009°23'712.9
2018-Apr-11 20:00N 38°41' W 009°17'510.7
2018-Apr-11 19:30N 38°42' W 009°10'3 6.6
2018-Apr-11 19:00N 38°43' W 009°07'0 0.0
2018-Apr-11 18:30N 38°43' W 009°07'0 0.0
2018-Apr-11 17:42N 38°43' W 009°07'0 0.0
2018-Apr-11 17:30N 38°43' W 009°07'0 0.0
2018-Apr-11 17:00N 38°43' W 009°07'0 0.0
2018-Apr-11 16:18N 38°43' W 009°07'0 0.0
2018-Apr-11 15:39N 38°43' W 009°07'0 0.0
2018-Apr-11 15:10N 38°43' W 009°07'0 0.9
2018-Apr-11 15:00N 38°43' W 009°07'5 8.3
2018-Apr-11 14:27N 38°41' W 009°12'4 8.9
2018-Apr-11 14:00N 38°41' W 009°17'611.7
2018-Apr-11 13:30N 38°37' W 009°23'713.1
2018-Apr-11 13:00N 38°36' W 009°31'714.4
2018-Apr-11 12:30N 38°35' W 009°40'714.5
2018-Apr-11 12:00N 38°35' W 009°49'714.4
2018-Apr-11 11:30N 38°35' W 009°59'2713.2
2018-Apr-11 09:28N 39°01' W 010°06'714.2
2018-Apr-11 09:00N 39°08' W 010°07'714.0
2018-Apr-11 08:30N 39°15' W 010°07'135 3.9
2018-Apr-09 21:51N 41°17' W 008°50'410.6
2018-Apr-09 21:31N 41°13' W 008°48'5 9.5
2018-Apr-09 21:00N 41°10' W 008°43'2 3.7
2018-Apr-09 20:29N 41°12' W 008°41'0 0.0
2018-Apr-09 19:59N 41°12' W 008°41'0 0.0
2018-Apr-09 19:29N 41°12' W 008°41'0 0.0
2018-Apr-09 18:59N 41°12' W 008°41'0 0.0
2018-Apr-09 18:29N 41°12' W 008°41'0 0.0
2018-Apr-09 17:59N 41°12' W 008°41'0 0.0
2018-Apr-09 17:29N 41°12' W 008°41'0 0.0
2018-Apr-09 16:59N 41°12' W 008°41'0 0.0
2018-Apr-09 16:29N 41°12' W 008°41'0 0.0
2018-Apr-09 15:59N 41°12' W 008°41'0 0.0
2018-Apr-09 15:29N 41°12' W 008°41'0 0.0
2018-Apr-09 14:59N 41°12' W 008°41'0 0.0
2018-Apr-09 14:29N 41°12' W 008°41'0 0.0
2018-Apr-09 13:59N 41°12' W 008°41'0 0.0
2018-Apr-09 13:29N 41°12' W 008°41'0 0.0
2018-Apr-09 12:59N 41°12' W 008°41'0 0.0
2018-Apr-09 12:29N 41°12' W 008°41'0 0.0
2018-Apr-09 11:59N 41°12' W 008°41'0 0.0
2018-Apr-09 11:29N 41°12' W 008°41'0 0.0
2018-Apr-09 10:59N 41°12' W 008°41'0 0.0
2018-Apr-09 10:29N 41°12' W 008°41'0 0.0
2018-Apr-09 09:59N 41°12' W 008°41'0 0.0
2018-Apr-09 09:29N 41°12' W 008°41'0 0.0
2018-Apr-09 08:59N 41°12' W 008°41'0 0.0
2018-Apr-09 08:29N 41°12' W 008°41'0 0.0
2018-Apr-09 07:59N 41°12' W 008°41'0 0.0
2018-Apr-09 07:29N 41°12' W 008°41'0 0.1
2018-Apr-09 06:59N 41°12' W 008°41'0 0.2
2018-Apr-09 06:29N 41°12' W 008°41'0 0.1
2018-Apr-09 05:59N 41°12' W 008°41'0 0.0
2018-Apr-09 05:29N 41°12' W 008°41'0 0.0
2018-Apr-09 04:59N 41°12' W 008°41'0 0.0
2018-Apr-09 04:29N 41°12' W 008°41'0 0.0
2018-Apr-09 03:59N 41°12' W 008°41'0 0.0
2018-Apr-09 03:29N 41°12' W 008°41'0 0.0
2018-Apr-09 02:59N 41°12' W 008°41'0 0.0
2018-Apr-09 02:29N 41°12' W 008°41'0 0.0
2018-Apr-09 01:59N 41°12' W 008°41'0 0.0
2018-Apr-09 01:29N 41°12' W 008°41'0 0.0
2018-Apr-09 00:59N 41°12' W 008°41'0 0.0
2018-Apr-09 00:29N 41°12' W 008°41'0 0.0
2018-Apr-08 23:59N 41°12' W 008°41'0 0.0
2018-Apr-08 23:29N 41°12' W 008°41'0 0.0
2018-Apr-08 22:59N 41°12' W 008°41'0 0.0
2018-Apr-08 22:29N 41°12' W 008°41'0 0.0
2018-Apr-08 21:59N 41°12' W 008°41'0 0.0
2018-Apr-08 21:29N 41°12' W 008°41'0 0.0
2018-Apr-08 20:59N 41°12' W 008°41'0 0.0
2018-Apr-08 20:29N 41°12' W 008°41'0 0.0
2018-Apr-08 19:59N 41°12' W 008°41'0 0.0
2018-Apr-08 19:29N 41°12' W 008°41'0 0.0
2018-Apr-08 18:59N 41°12' W 008°41'0 0.0
2018-Apr-08 18:29N 41°12' W 008°41'0 0.0
2018-Apr-08 17:59N 41°12' W 008°41'0 0.0
2018-Apr-08 17:29N 41°12' W 008°41'0 0.0
2018-Apr-08 16:59N 41°12' W 008°41'0 0.0
2018-Apr-08 16:29N 41°12' W 008°41'0 0.0
2018-Apr-08 15:59N 41°12' W 008°41'0 0.0
2018-Apr-08 15:29N 41°12' W 008°41'0 0.0
2018-Apr-08 14:59N 41°12' W 008°41'0 0.0
2018-Apr-08 14:29N 41°12' W 008°41'0 0.0
2018-Apr-08 13:59N 41°12' W 008°41'0 0.0
2018-Apr-08 13:29N 41°12' W 008°41'0 0.0
2018-Apr-08 12:59N 41°12' W 008°41'0 0.0
2018-Apr-08 12:29N 41°12' W 008°41'0 0.0
2018-Apr-08 11:59N 41°12' W 008°41'0 0.0
2018-Apr-08 11:29N 41°12' W 008°41'0 0.0
2018-Apr-08 10:59N 41°12' W 008°41'0 0.0
2018-Apr-08 10:29N 41°12' W 008°41'0 0.0
2018-Apr-08 09:59N 41°12' W 008°41'0 0.0
2018-Apr-08 09:29N 41°12' W 008°41'0 0.0
2018-Apr-08 08:59N 41°12' W 008°41'0 0.0
2018-Apr-08 08:29N 41°12' W 008°41'0 0.0
2018-Apr-08 07:56N 41°12' W 008°41'0 0.0
2018-Apr-08 07:29N 41°12' W 008°41'0 0.0
2018-Apr-08 06:59N 41°12' W 008°41'0 0.0
2018-Apr-08 06:29N 41°12' W 008°41'0 0.0
2018-Apr-08 05:59N 41°12' W 008°41'0 0.0
2018-Apr-08 05:29N 41°12' W 008°41'0 0.0
2018-Apr-08 04:59N 41°12' W 008°41'0 0.0
2018-Apr-08 04:29N 41°12' W 008°41'0 0.1
2018-Apr-08 03:59N 41°12' W 008°41'0 0.0
2018-Apr-08 03:29N 41°12' W 008°41'0 0.0
2018-Apr-08 02:59N 41°12' W 008°41'0 0.0
2018-Apr-08 02:29N 41°12' W 008°41'0 0.0
2018-Apr-08 01:59N 41°12' W 008°41'0 0.0
2018-Apr-08 01:29N 41°12' W 008°41'0 0.0
2018-Apr-08 00:59N 41°12' W 008°41'0 0.0
2018-Apr-08 00:29N 41°12' W 008°41'0 0.0
2018-Apr-07 23:59N 41°12' W 008°41'0 0.0
2018-Apr-07 23:29N 41°12' W 008°41'0 0.0
2018-Apr-07 22:59N 41°12' W 008°41'0 0.5
2018-Apr-07 22:31N 41°11' W 008°41'2 5.0
2018-Apr-07 22:01N 41°10' W 008°44'1 1.5
2018-Apr-07 21:31N 41°09' W 008°45'2 3.1
2018-Apr-07 21:00N 41°09' W 008°47'2 3.3
2018-Apr-07 20:30N 41°11' W 008°48'1 1.5
2018-Apr-07 20:00N 41°10' W 008°48'2 3.1
2018-Apr-07 19:30N 41°08' W 008°47'2 3.3
2018-Apr-07 19:00N 41°07' W 008°46'3 5.8
2018-Apr-07 18:30N 41°04' W 008°47'10313.5
2018-Apr-07 10:54N 39°30' W 009°43'513.2
2018-Apr-07 10:30N 39°25' W 009°44'713.5
2018-Apr-07 10:00N 39°19' W 009°46'713.3
2018-Apr-07 09:30N 39°12' W 009°47'713.3
2018-Apr-07 09:00N 39°06' W 009°48'713.1
2018-Apr-07 08:30N 38°59' W 009°49'713.2
2018-Apr-07 08:00N 38°53' W 009°51'713.0
2018-Apr-07 07:30N 38°46' W 009°51'612.9
2018-Apr-07 07:00N 38°40' W 009°50'612.8
2018-Apr-07 06:30N 38°33' W 009°48'612.8
2018-Apr-07 06:00N 38°27' W 009°46'712.7
2018-Apr-07 05:29N 38°21' W 009°45'612.3
2018-Apr-07 04:59N 38°15' W 009°42'712.3
2018-Apr-07 04:27N 38°08' W 009°40'612.4
2018-Apr-07 04:00N 38°03' W 009°39'612.3
2018-Apr-07 03:29N 37°57' W 009°37'612.3
2018-Apr-07 03:00N 37°51' W 009°35'612.5
2018-Apr-07 02:30N 37°45' W 009°33'612.4
2018-Apr-07 02:00N 37°39' W 009°31'21811.4
2018-Apr-06 06:47N 36°00' W 005°28'310.4
2018-Apr-06 06:30N 36°02' W 005°25'5 9.3
2018-Apr-06 05:58N 36°07' W 005°25'1 1.3
2018-Apr-06 05:23N 36°08' W 005°25'0 0.0
2018-Apr-06 04:59N 36°08' W 005°25'0 0.0
2018-Apr-06 04:29N 36°08' W 005°25'0 0.0
2018-Apr-06 03:59N 36°08' W 005°25'0 0.0
2018-Apr-06 03:26N 36°08' W 005°25'0 0.0
2018-Apr-06 02:59N 36°08' W 005°25'0 0.0
2018-Apr-06 02:29N 36°08' W 005°25'0 0.0
2018-Apr-06 01:53N 36°08' W 005°25'0 0.0
2018-Apr-06 01:29N 36°08' W 005°25'0 0.0
2018-Apr-06 00:53N 36°08' W 005°25'0 0.0
2018-Apr-06 00:29N 36°08' W 005°25'0 0.1
2018-Apr-05 23:59N 36°08' W 005°25'0 0.1
2018-Apr-05 23:29N 36°08' W 005°25'0 0.0
2018-Apr-05 22:59N 36°08' W 005°25'0 0.0
2018-Apr-05 22:29N 36°08' W 005°25'0 0.0
2018-Apr-05 21:59N 36°08' W 005°25'0 0.0
2018-Apr-05 21:29N 36°08' W 005°25'0 0.0
2018-Apr-05 20:59N 36°08' W 005°25'0 0.0
2018-Apr-05 20:23N 36°08' W 005°25'0 0.0
2018-Apr-05 19:56N 36°08' W 005°25'0 0.0
2018-Apr-05 19:29N 36°08' W 005°25'0 0.1
2018-Apr-05 19:00N 36°08' W 005°25'2 3.4
2018-Apr-05 18:30N 36°07' W 005°23'4 4.5
2018-Apr-05 17:32N 36°03' W 005°22'0 1.1
2018-Apr-05 17:27N 36°03' W 005°22'1 1.3
2018-Apr-05 17:00N 36°03' W 005°21'1 2.1
2018-Apr-05 16:30N 36°03' W 005°20'2 4.1
2018-Apr-05 15:59N 36°03' W 005°17'22 1.1
2018-Apr-04 20:43N 35°51' W 004°55'0 1.5
2018-Apr-04 20:30N 35°51' W 004°55'1 1.5
2018-Apr-04 19:59N 35°51' W 004°56'1 1.4
2018-Apr-04 19:28N 35°50' W 004°57'  
Track history (hours):
 
Tides and Currents Weather Stations Pressure Air Temp Water Temp Dewpoint Dewpoint Depression Visibility Wind Speed Wind Dir Waves Ship Positions

Romy Trader

Last reported at 2018-Apr-14 15:19 UTC. Time now 2018-Apr-22 01:28 UTC.
Position N 35°50' W 005°08'.

Length 132 m; draft 5.4 m.

Type: Ship. MMSI: 236576000.

Date/timePositionNaut miles runAvg speedWind from/ knotsBaromVisibWave heightAir tempDewpointWater temp
2018-Apr-14 15:19N 35°50' W 005°08'513.4
2018-Apr-14 14:56N 35°55' W 005°11'615.0
2018-Apr-14 14:30N 35°57' W 005°18'816.1
2018-Apr-14 14:00N 35°56' W 005°28'  
2018-Apr-11 22:20N 38°13' W 009°27'412.6
2018-Apr-11 22:00N 38°17' W 009°27'612.7
2018-Apr-11 21:30N 38°24' W 009°26'713.1
2018-Apr-11 21:00N 38°30' W 009°25'713.1
2018-Apr-11 20:30N 38°36' W 009°23'712.9
2018-Apr-11 20:00N 38°41' W 009°17'510.7
2018-Apr-11 19:30N 38°42' W 009°10'3 6.6
2018-Apr-11 19:00N 38°43' W 009°07'0 0.0
2018-Apr-11 18:30N 38°43' W 009°07'0 0.0
2018-Apr-11 17:42N 38°43' W 009°07'0 0.0
2018-Apr-11 17:30N 38°43' W 009°07'0 0.0
2018-Apr-11 17:00N 38°43' W 009°07'0 0.0
2018-Apr-11 16:18N 38°43' W 009°07'0 0.0
2018-Apr-11 15:39N 38°43' W 009°07'0 0.0
2018-Apr-11 15:10N 38°43' W 009°07'0 0.9
2018-Apr-11 15:00N 38°43' W 009°07'5 8.3
2018-Apr-11 14:27N 38°41' W 009°12'4 8.9
2018-Apr-11 14:00N 38°41' W 009°17'611.7
2018-Apr-11 13:30N 38°37' W 009°23'713.1
2018-Apr-11 13:00N 38°36' W 009°31'714.4
2018-Apr-11 12:30N 38°35' W 009°40'714.5
2018-Apr-11 12:00N 38°35' W 009°49'714.4
2018-Apr-11 11:30N 38°35' W 009°59'2713.2
2018-Apr-11 09:28N 39°01' W 010°06'714.2
2018-Apr-11 09:00N 39°08' W 010°07'714.0
2018-Apr-11 08:30N 39°15' W 010°07'135 3.9
2018-Apr-09 21:51N 41°17' W 008°50'410.6
2018-Apr-09 21:31N 41°13' W 008°48'5 9.5
2018-Apr-09 21:00N 41°10' W 008°43'2 3.7
2018-Apr-09 20:29N 41°12' W 008°41'0 0.0
2018-Apr-09 19:59N 41°12' W 008°41'0 0.0
2018-Apr-09 19:29N 41°12' W 008°41'0 0.0
2018-Apr-09 18:59N 41°12' W 008°41'0 0.0
2018-Apr-09 18:29N 41°12' W 008°41'0 0.0
2018-Apr-09 17:59N 41°12' W 008°41'0 0.0
2018-Apr-09 17:29N 41°12' W 008°41'0 0.0
2018-Apr-09 16:59N 41°12' W 008°41'0 0.0
2018-Apr-09 16:29N 41°12' W 008°41'0 0.0
2018-Apr-09 15:59N 41°12' W 008°41'0 0.0
2018-Apr-09 15:29N 41°12' W 008°41'0 0.0
2018-Apr-09 14:59N 41°12' W 008°41'0 0.0
2018-Apr-09 14:29N 41°12' W 008°41'0 0.0
2018-Apr-09 13:59N 41°12' W 008°41'0 0.0
2018-Apr-09 13:29N 41°12' W 008°41'0 0.0
2018-Apr-09 12:59N 41°12' W 008°41'0 0.0
2018-Apr-09 12:29N 41°12' W 008°41'0 0.0
2018-Apr-09 11:59N 41°12' W 008°41'0 0.0
2018-Apr-09 11:29N 41°12' W 008°41'0 0.0
2018-Apr-09 10:59N 41°12' W 008°41'0 0.0
2018-Apr-09 10:29N 41°12' W 008°41'0 0.0
2018-Apr-09 09:59N 41°12' W 008°41'0 0.0
2018-Apr-09 09:29N 41°12' W 008°41'0 0.0
2018-Apr-09 08:59N 41°12' W 008°41'0 0.0
2018-Apr-09 08:29N 41°12' W 008°41'0 0.0
2018-Apr-09 07:59N 41°12' W 008°41'0 0.0
2018-Apr-09 07:29N 41°12' W 008°41'0 0.1
2018-Apr-09 06:59N 41°12' W 008°41'0 0.2
2018-Apr-09 06:29N 41°12' W 008°41'0 0.1
2018-Apr-09 05:59N 41°12' W 008°41'0 0.0
2018-Apr-09 05:29N 41°12' W 008°41'0 0.0
2018-Apr-09 04:59N 41°12' W 008°41'0 0.0
2018-Apr-09 04:29N 41°12' W 008°41'0 0.0
2018-Apr-09 03:59N 41°12' W 008°41'0 0.0
2018-Apr-09 03:29N 41°12' W 008°41'0 0.0
2018-Apr-09 02:59N 41°12' W 008°41'0 0.0
2018-Apr-09 02:29N 41°12' W 008°41'0 0.0
2018-Apr-09 01:59N 41°12' W 008°41'0 0.0
2018-Apr-09 01:29N 41°12' W 008°41'0 0.0
2018-Apr-09 00:59N 41°12' W 008°41'0 0.0
2018-Apr-09 00:29N 41°12' W 008°41'0 0.0
2018-Apr-08 23:59N 41°12' W 008°41'0 0.0
2018-Apr-08 23:29N 41°12' W 008°41'0 0.0
2018-Apr-08 22:59N 41°12' W 008°41'0 0.0
2018-Apr-08 22:29N 41°12' W 008°41'0 0.0
2018-Apr-08 21:59N 41°12' W 008°41'0 0.0
2018-Apr-08 21:29N 41°12' W 008°41'0 0.0
2018-Apr-08 20:59N 41°12' W 008°41'0 0.0
2018-Apr-08 20:29N 41°12' W 008°41'0 0.0
2018-Apr-08 19:59N 41°12' W 008°41'0 0.0
2018-Apr-08 19:29N 41°12' W 008°41'0 0.0
2018-Apr-08 18:59N 41°12' W 008°41'0 0.0
2018-Apr-08 18:29N 41°12' W 008°41'0 0.0
2018-Apr-08 17:59N 41°12' W 008°41'0 0.0
2018-Apr-08 17:29N 41°12' W 008°41'0 0.0
2018-Apr-08 16:59N 41°12' W 008°41'0 0.0
2018-Apr-08 16:29N 41°12' W 008°41'0 0.0
2018-Apr-08 15:59N 41°12' W 008°41'0 0.0
2018-Apr-08 15:29N 41°12' W 008°41'0 0.0
2018-Apr-08 14:59N 41°12' W 008°41'0 0.0
2018-Apr-08 14:29N 41°12' W 008°41'0 0.0
2018-Apr-08 13:59N 41°12' W 008°41'0 0.0
2018-Apr-08 13:29N 41°12' W 008°41'0 0.0
2018-Apr-08 12:59N 41°12' W 008°41'0 0.0
2018-Apr-08 12:29N 41°12' W 008°41'0 0.0
2018-Apr-08 11:59N 41°12' W 008°41'0 0.0
2018-Apr-08 11:29N 41°12' W 008°41'0 0.0
2018-Apr-08 10:59N 41°12' W 008°41'0 0.0
2018-Apr-08 10:29N 41°12' W 008°41'0 0.0
2018-Apr-08 09:59N 41°12' W 008°41'0 0.0
2018-Apr-08 09:29N 41°12' W 008°41'0 0.0
2018-Apr-08 08:59N 41°12' W 008°41'0 0.0
2018-Apr-08 08:29N 41°12' W 008°41'0 0.0
2018-Apr-08 07:56N 41°12' W 008°41'0 0.0
2018-Apr-08 07:29N 41°12' W 008°41'0 0.0
2018-Apr-08 06:59N 41°12' W 008°41'0 0.0
2018-Apr-08 06:29N 41°12' W 008°41'0 0.0
2018-Apr-08 05:59N 41°12' W 008°41'0 0.0
2018-Apr-08 05:29N 41°12' W 008°41'0 0.0
2018-Apr-08 04:59N 41°12' W 008°41'0 0.0
2018-Apr-08 04:29N 41°12' W 008°41'0 0.1
2018-Apr-08 03:59N 41°12' W 008°41'0 0.0
2018-Apr-08 03:29N 41°12' W 008°41'0 0.0
2018-Apr-08 02:59N 41°12' W 008°41'0 0.0
2018-Apr-08 02:29N 41°12' W 008°41'0 0.0
2018-Apr-08 01:59N 41°12' W 008°41'0 0.0
2018-Apr-08 01:29N 41°12' W 008°41'0 0.0
2018-Apr-08 00:59N 41°12' W 008°41'0 0.0
2018-Apr-08 00:29N 41°12' W 008°41'0 0.0
2018-Apr-07 23:59N 41°12' W 008°41'0 0.0
2018-Apr-07 23:29N 41°12' W 008°41'0 0.0
2018-Apr-07 22:59N 41°12' W 008°41'0 0.5
2018-Apr-07 22:31N 41°11' W 008°41'2 5.0
2018-Apr-07 22:01N 41°10' W 008°44'1 1.5
2018-Apr-07 21:31N 41°09' W 008°45'2 3.1
2018-Apr-07 21:00N 41°09' W 008°47'2 3.3
2018-Apr-07 20:30N 41°11' W 008°48'1 1.5
2018-Apr-07 20:00N 41°10' W 008°48'2 3.1
2018-Apr-07 19:30N 41°08' W 008°47'2 3.3
2018-Apr-07 19:00N 41°07' W 008°46'3 5.8
2018-Apr-07 18:30N 41°04' W 008°47'10313.5
2018-Apr-07 10:54N 39°30' W 009°43'513.2
2018-Apr-07 10:30N 39°25' W 009°44'713.5
2018-Apr-07 10:00N 39°19' W 009°46'713.3
2018-Apr-07 09:30N 39°12' W 009°47'713.3
2018-Apr-07 09:00N 39°06' W 009°48'713.1
2018-Apr-07 08:30N 38°59' W 009°49'713.2
2018-Apr-07 08:00N 38°53' W 009°51'713.0
2018-Apr-07 07:30N 38°46' W 009°51'612.9
2018-Apr-07 07:00N 38°40' W 009°50'612.8
2018-Apr-07 06:30N 38°33' W 009°48'612.8
2018-Apr-07 06:00N 38°27' W 009°46'712.7
2018-Apr-07 05:29N 38°21' W 009°45'612.3
2018-Apr-07 04:59N 38°15' W 009°42'712.3
2018-Apr-07 04:27N 38°08' W 009°40'612.4
2018-Apr-07 04:00N 38°03' W 009°39'612.3
2018-Apr-07 03:29N 37°57' W 009°37'612.3
2018-Apr-07 03:00N 37°51' W 009°35'612.5
2018-Apr-07 02:30N 37°45' W 009°33'612.4
2018-Apr-07 02:00N 37°39' W 009°31'21811.4
2018-Apr-06 06:47N 36°00' W 005°28'310.4
2018-Apr-06 06:30N 36°02' W 005°25'5 9.3
2018-Apr-06 05:58N 36°07' W 005°25'1 1.3
2018-Apr-06 05:23N 36°08' W 005°25'0 0.0
2018-Apr-06 04:59N 36°08' W 005°25'0 0.0
2018-Apr-06 04:29N 36°08' W 005°25'0 0.0
2018-Apr-06 03:59N 36°08' W 005°25'0 0.0
2018-Apr-06 03:26N 36°08' W 005°25'0 0.0
2018-Apr-06 02:59N 36°08' W 005°25'0 0.0
2018-Apr-06 02:29N 36°08' W 005°25'0 0.0
2018-Apr-06 01:53N 36°08' W 005°25'0 0.0
2018-Apr-06 01:29N 36°08' W 005°25'0 0.0
2018-Apr-06 00:53N 36°08' W 005°25'0 0.0
2018-Apr-06 00:29N 36°08' W 005°25'0 0.1
2018-Apr-05 23:59N 36°08' W 005°25'0 0.1
2018-Apr-05 23:29N 36°08' W 005°25'0 0.0
2018-Apr-05 22:59N 36°08' W 005°25'0 0.0
2018-Apr-05 22:29N 36°08' W 005°25'0 0.0
2018-Apr-05 21:59N 36°08' W 005°25'0 0.0
2018-Apr-05 21:29N 36°08' W 005°25'0 0.0
2018-Apr-05 20:59N 36°08' W 005°25'0 0.0
2018-Apr-05 20:23N 36°08' W 005°25'0 0.0
2018-Apr-05 19:56N 36°08' W 005°25'0 0.0
2018-Apr-05 19:29N 36°08' W 005°25'0 0.1
2018-Apr-05 19:00N 36°08' W 005°25'2 3.4
2018-Apr-05 18:30N 36°07' W 005°23'4 4.5
2018-Apr-05 17:32N 36°03' W 005°22'0 1.1
2018-Apr-05 17:27N 36°03' W 005°22'1 1.3
2018-Apr-05 17:00N 36°03' W 005°21'1 2.1
2018-Apr-05 16:30N 36°03' W 005°20'2 4.1
2018-Apr-05 15:59N 36°03' W 005°17'22 1.1
2018-Apr-04 20:43N 35°51' W 004°55'0 1.5
2018-Apr-04 20:30N 35°51' W 004°55'1 1.5
2018-Apr-04 19:59N 35°51' W 004°56'1 1.4
2018-Apr-04 19:28N 35°50' W 004°57'  

Dump ship's entire track history